sensor_id;sensor_type;location;lat;lon;timestamp;P1;durP1;ratioP1;P2;durP2;ratioP2
60243;SDS011;46106;51.468;5.814;2022-07-03T00:00:35;14.65;;;6.57;;
60243;SDS011;46106;51.468;5.814;2022-07-03T00:03:01;19.95;;;5.90;;
60243;SDS011;46106;51.468;5.814;2022-07-03T00:05:26;14.60;;;6.25;;
60243;SDS011;46106;51.468;5.814;2022-07-03T00:07:52;9.57;;;5.97;;
60243;SDS011;46106;51.468;5.814;2022-07-03T00:10:17;17.85;;;6.97;;
60243;SDS011;46106;51.468;5.814;2022-07-03T00:12:43;12.55;;;6.20;;
60243;SDS011;46106;51.468;5.814;2022-07-03T00:15:09;9.85;;;6.22;;
60243;SDS011;46106;51.468;5.814;2022-07-03T00:17:35;15.13;;;6.20;;
60243;SDS011;46106;51.468;5.814;2022-07-03T00:20:00;16.98;;;6.82;;
60243;SDS011;46106;51.468;5.814;2022-07-03T00:22:26;12.35;;;7.47;;
60243;SDS011;46106;51.468;5.814;2022-07-03T00:25:01;15.82;;;7.82;;
60243;SDS011;46106;51.468;5.814;2022-07-03T00:29:55;18.73;;;9.15;;
60243;SDS011;46106;51.468;5.814;2022-07-03T00:32:23;23.40;;;9.32;;
60243;SDS011;46106;51.468;5.814;2022-07-03T00:34:50;19.15;;;9.02;;
60243;SDS011;46106;51.468;5.814;2022-07-03T00:37:17;13.60;;;9.40;;
60243;SDS011;46106;51.468;5.814;2022-07-03T00:39:43;22.27;;;9.38;;
60243;SDS011;46106;51.468;5.814;2022-07-03T00:42:10;16.33;;;9.90;;
60243;SDS011;46106;51.468;5.814;2022-07-03T00:44:47;22.17;;;11.18;;
60243;SDS011;46106;51.468;5.814;2022-07-03T00:47:17;16.35;;;10.77;;
60243;SDS011;46106;51.468;5.814;2022-07-03T00:49:45;21.35;;;11.25;;
60243;SDS011;46106;51.468;5.814;2022-07-03T00:52:13;19.02;;;11.40;;
60243;SDS011;46106;51.468;5.814;2022-07-03T00:54:42;20.17;;;11.27;;
60243;SDS011;46106;51.468;5.814;2022-07-03T00:57:13;29.05;;;11.57;;
60243;SDS011;46106;51.468;5.814;2022-07-03T00:59:41;18.27;;;11.98;;
60243;SDS011;46106;51.468;5.814;2022-07-03T01:02:08;20.35;;;11.93;;
60243;SDS011;46106;51.468;5.814;2022-07-03T01:04:45;28.38;;;11.57;;
60243;SDS011;46106;51.468;5.814;2022-07-03T01:08:04;19.73;;;11.05;;
60243;SDS011;46106;51.468;5.814;2022-07-03T01:10:04;34.40;;;12.10;;
60243;SDS011;46106;51.468;5.814;2022-07-03T01:15:36;20.55;;;12.88;;
60243;SDS011;46106;51.468;5.814;2022-07-03T01:18:35;17.27;;;12.30;;
60243;SDS011;46106;51.468;5.814;2022-07-03T01:21:10;28.65;;;13.48;;
60243;SDS011;46106;51.468;5.814;2022-07-03T01:24:02;21.75;;;12.50;;
60243;SDS011;46106;51.468;5.814;2022-07-03T01:26:41;19.38;;;12.05;;
60243;SDS011;46106;51.468;5.814;2022-07-03T01:29:13;25.05;;;12.98;;
60243;SDS011;46106;51.468;5.814;2022-07-03T01:31:43;21.00;;;12.80;;
60243;SDS011;46106;51.468;5.814;2022-07-03T01:34:13;16.45;;;11.98;;
60243;SDS011;46106;51.468;5.814;2022-07-03T01:36:43;24.33;;;12.90;;
60243;SDS011;46106;51.468;5.814;2022-07-03T01:39:12;22.50;;;13.50;;
60243;SDS011;46106;51.468;5.814;2022-07-03T01:41:42;22.02;;;13.48;;
60243;SDS011;46106;51.468;5.814;2022-07-03T01:44:10;24.17;;;13.25;;
60243;SDS011;46106;51.468;5.814;2022-07-03T01:46:39;22.95;;;13.68;;
60243;SDS011;46106;51.468;5.814;2022-07-03T01:49:07;21.35;;;12.55;;
60243;SDS011;46106;51.468;5.814;2022-07-03T01:51:36;25.23;;;11.85;;
60243;SDS011;46106;51.468;5.814;2022-07-03T01:54:04;22.73;;;12.65;;
60243;SDS011;46106;51.468;5.814;2022-07-03T01:56:30;19.73;;;11.38;;
60243;SDS011;46106;51.468;5.814;2022-07-03T01:58:58;17.08;;;11.10;;
60243;SDS011;46106;51.468;5.814;2022-07-03T02:01:25;18.25;;;11.38;;
60243;SDS011;46106;51.468;5.814;2022-07-03T02:04:02;21.33;;;11.07;;
60243;SDS011;46106;51.468;5.814;2022-07-03T02:06:36;20.25;;;11.63;;
60243;SDS011;46106;51.468;5.814;2022-07-03T02:09:07;26.52;;;11.13;;
60243;SDS011;46106;51.468;5.814;2022-07-03T02:11:38;18.30;;;10.60;;
60243;SDS011;46106;51.468;5.814;2022-07-03T02:22:17;17.50;;;10.95;;
60243;SDS011;46106;51.468;5.814;2022-07-03T02:24:44;16.52;;;10.82;;
60243;SDS011;46106;51.468;5.814;2022-07-03T02:27:22;23.77;;;11.82;;
60243;SDS011;46106;51.468;5.814;2022-07-03T02:30:03;19.35;;;11.57;;
60243;SDS011;46106;51.468;5.814;2022-07-03T02:32:33;23.10;;;11.63;;
60243;SDS011;46106;51.468;5.814;2022-07-03T02:35:06;30.50;;;12.02;;
60243;SDS011;46106;51.468;5.814;2022-07-03T02:37:37;21.90;;;12.60;;
60243;SDS011;46106;51.468;5.814;2022-07-03T02:40:14;19.83;;;12.48;;
60243;SDS011;46106;51.468;5.814;2022-07-03T02:43:10;20.75;;;12.10;;
60243;SDS011;46106;51.468;5.814;2022-07-03T02:45:50;29.13;;;13.18;;
60243;SDS011;46106;51.468;5.814;2022-07-03T02:51:54;18.13;;;12.93;;
60243;SDS011;46106;51.468;5.814;2022-07-03T02:54:26;22.65;;;13.00;;
60243;SDS011;46106;51.468;5.814;2022-07-03T02:57:07;23.85;;;13.23;;
60243;SDS011;46106;51.468;5.814;2022-07-03T03:02:22;21.05;;;12.85;;
60243;SDS011;46106;51.468;5.814;2022-07-03T03:04:58;23.25;;;13.48;;
60243;SDS011;46106;51.468;5.814;2022-07-03T03:07:35;28.45;;;12.43;;
60243;SDS011;46106;51.468;5.814;2022-07-03T03:10:10;21.08;;;12.52;;
60243;SDS011;46106;51.468;5.814;2022-07-03T03:12:37;23.30;;;12.90;;
60243;SDS011;46106;51.468;5.814;2022-07-03T03:15:06;34.45;;;13.35;;
60243;SDS011;46106;51.468;5.814;2022-07-03T03:17:44;24.75;;;12.23;;
60243;SDS011;46106;51.468;5.814;2022-07-03T03:20:15;20.55;;;13.10;;
60243;SDS011;46106;51.468;5.814;2022-07-03T03:25:25;33.50;;;13.70;;
60243;SDS011;46106;51.468;5.814;2022-07-03T03:27:50;23.73;;;13.13;;
60243;SDS011;46106;51.468;5.814;2022-07-03T03:30:17;23.33;;;13.45;;
60243;SDS011;46106;51.468;5.814;2022-07-03T03:32:43;22.38;;;12.88;;
60243;SDS011;46106;51.468;5.814;2022-07-03T03:35:10;25.00;;;13.43;;
60243;SDS011;46106;51.468;5.814;2022-07-03T03:37:37;23.80;;;12.60;;
60243;SDS011;46106;51.468;5.814;2022-07-03T03:40:03;24.33;;;13.63;;
60243;SDS011;46106;51.468;5.814;2022-07-03T03:42:29;24.17;;;13.18;;
60243;SDS011;46106;51.468;5.814;2022-07-03T03:44:57;33.70;;;12.82;;
60243;SDS011;46106;51.468;5.814;2022-07-03T03:47:23;22.70;;;12.02;;
60243;SDS011;46106;51.468;5.814;2022-07-03T03:49:49;27.40;;;12.30;;
60243;SDS011;46106;51.468;5.814;2022-07-03T03:52:15;25.65;;;11.98;;
60243;SDS011;46106;51.468;5.814;2022-07-03T03:54:41;25.52;;;12.40;;
60243;SDS011;46106;51.468;5.814;2022-07-03T03:57:20;24.85;;;12.77;;
60243;SDS011;46106;51.468;5.814;2022-07-03T03:59:47;25.45;;;12.27;;
60243;SDS011;46106;51.468;5.814;2022-07-03T04:02:13;24.48;;;11.60;;
60243;SDS011;46106;51.468;5.814;2022-07-03T04:04:39;22.20;;;10.80;;
60243;SDS011;46106;51.468;5.814;2022-07-03T04:07:04;17.70;;;11.02;;
60243;SDS011;46106;51.468;5.814;2022-07-03T04:09:30;24.10;;;10.90;;
60243;SDS011;46106;51.468;5.814;2022-07-03T04:11:56;17.73;;;10.50;;
60243;SDS011;46106;51.468;5.814;2022-07-03T04:14:22;13.88;;;9.68;;
60243;SDS011;46106;51.468;5.814;2022-07-03T04:16:48;16.27;;;9.93;;
60243;SDS011;46106;51.468;5.814;2022-07-03T04:19:13;18.00;;;10.68;;
60243;SDS011;46106;51.468;5.814;2022-07-03T04:21:38;19.58;;;10.38;;
60243;SDS011;46106;51.468;5.814;2022-07-03T04:24:04;14.70;;;9.73;;
60243;SDS011;46106;51.468;5.814;2022-07-03T04:26:30;20.52;;;10.65;;
60243;SDS011;46106;51.468;5.814;2022-07-03T04:28:55;18.77;;;9.70;;
60243;SDS011;46106;51.468;5.814;2022-07-03T04:31:21;19.15;;;10.77;;
60243;SDS011;46106;51.468;5.814;2022-07-03T04:33:47;19.60;;;10.27;;
60243;SDS011;46106;51.468;5.814;2022-07-03T04:36:12;16.90;;;9.98;;
60243;SDS011;46106;51.468;5.814;2022-07-03T04:38:38;23.33;;;10.27;;
60243;SDS011;46106;51.468;5.814;2022-07-03T04:41:03;23.92;;;10.55;;
60243;SDS011;46106;51.468;5.814;2022-07-03T04:43:29;24.52;;;10.43;;
60243;SDS011;46106;51.468;5.814;2022-07-03T04:45:54;17.00;;;8.70;;
60243;SDS011;46106;51.468;5.814;2022-07-03T04:48:20;19.27;;;9.80;;
60243;SDS011;46106;51.468;5.814;2022-07-03T04:50:46;26.38;;;9.88;;
60243;SDS011;46106;51.468;5.814;2022-07-03T04:53:12;17.67;;;9.52;;
60243;SDS011;46106;51.468;5.814;2022-07-03T04:55:38;15.80;;;8.98;;
60243;SDS011;46106;51.468;5.814;2022-07-03T04:58:04;21.50;;;9.15;;
60243;SDS011;46106;51.468;5.814;2022-07-03T05:00:29;21.75;;;8.80;;
60243;SDS011;46106;51.468;5.814;2022-07-03T05:02:55;20.45;;;8.77;;
60243;SDS011;46106;51.468;5.814;2022-07-03T05:05:20;25.90;;;9.40;;
60243;SDS011;46106;51.468;5.814;2022-07-03T05:07:46;20.25;;;9.68;;
60243;SDS011;46106;51.468;5.814;2022-07-03T05:10:12;18.65;;;10.02;;
60243;SDS011;46106;51.468;5.814;2022-07-03T05:12:37;24.35;;;10.05;;
60243;SDS011;46106;51.468;5.814;2022-07-03T05:15:03;18.73;;;10.00;;
60243;SDS011;46106;51.468;5.814;2022-07-03T05:17:28;24.75;;;11.05;;
60243;SDS011;46106;51.468;5.814;2022-07-03T05:19:54;21.48;;;11.25;;
60243;SDS011;46106;51.468;5.814;2022-07-03T05:22:39;20.90;;;10.48;;
60243;SDS011;46106;51.468;5.814;2022-07-03T05:25:05;26.15;;;10.50;;
60243;SDS011;46106;51.468;5.814;2022-07-03T05:27:30;19.40;;;10.05;;
60243;SDS011;46106;51.468;5.814;2022-07-03T05:29:56;21.05;;;9.85;;
60243;SDS011;46106;51.468;5.814;2022-07-03T05:32:21;20.98;;;11.10;;
60243;SDS011;46106;51.468;5.814;2022-07-03T05:34:47;15.88;;;9.95;;
60243;SDS011;46106;51.468;5.814;2022-07-03T05:37:12;20.52;;;9.35;;
60243;SDS011;46106;51.468;5.814;2022-07-03T05:39:38;23.42;;;11.20;;
60243;SDS011;46106;51.468;5.814;2022-07-03T05:42:03;19.77;;;9.85;;
60243;SDS011;46106;51.468;5.814;2022-07-03T05:44:30;11.90;;;7.55;;
60243;SDS011;46106;51.468;5.814;2022-07-03T05:46:56;15.65;;;8.32;;
60243;SDS011;46106;51.468;5.814;2022-07-03T05:49:21;12.68;;;7.30;;
60243;SDS011;46106;51.468;5.814;2022-07-03T05:51:47;14.45;;;7.28;;
60243;SDS011;46106;51.468;5.814;2022-07-03T05:54:12;14.82;;;7.97;;
60243;SDS011;46106;51.468;5.814;2022-07-03T05:56:38;16.20;;;6.82;;
60243;SDS011;46106;51.468;5.814;2022-07-03T05:59:03;18.35;;;6.60;;
60243;SDS011;46106;51.468;5.814;2022-07-03T06:01:29;14.95;;;6.53;;
60243;SDS011;46106;51.468;5.814;2022-07-03T06:03:55;16.83;;;6.78;;
60243;SDS011;46106;51.468;5.814;2022-07-03T06:06:20;12.27;;;6.03;;
60243;SDS011;46106;51.468;5.814;2022-07-03T06:08:46;13.80;;;6.28;;
60243;SDS011;46106;51.468;5.814;2022-07-03T06:11:11;12.00;;;5.82;;
60243;SDS011;46106;51.468;5.814;2022-07-03T06:13:37;16.27;;;6.65;;
60243;SDS011;46106;51.468;5.814;2022-07-03T06:16:02;14.18;;;5.88;;
60243;SDS011;46106;51.468;5.814;2022-07-03T06:18:28;11.90;;;5.63;;
60243;SDS011;46106;51.468;5.814;2022-07-03T06:20:53;11.52;;;6.05;;
60243;SDS011;46106;51.468;5.814;2022-07-03T06:23:19;10.00;;;5.25;;
60243;SDS011;46106;51.468;5.814;2022-07-03T06:25:44;12.68;;;4.80;;
60243;SDS011;46106;51.468;5.814;2022-07-03T06:28:10;13.35;;;4.88;;
60243;SDS011;46106;51.468;5.814;2022-07-03T06:30:35;10.02;;;3.03;;
60243;SDS011;46106;51.468;5.814;2022-07-03T06:33:01;8.25;;;2.60;;
60243;SDS011;46106;51.468;5.814;2022-07-03T06:35:26;14.25;;;2.47;;
60243;SDS011;46106;51.468;5.814;2022-07-03T06:37:52;8.23;;;2.63;;
60243;SDS011;46106;51.468;5.814;2022-07-03T06:40:17;8.80;;;1.85;;
60243;SDS011;46106;51.468;5.814;2022-07-03T06:42:42;5.50;;;1.80;;
60243;SDS011;46106;51.468;5.814;2022-07-03T06:45:08;5.38;;;1.60;;
60243;SDS011;46106;51.468;5.814;2022-07-03T06:47:37;6.45;;;2.00;;
60243;SDS011;46106;51.468;5.814;2022-07-03T06:50:04;6.18;;;1.33;;
60243;SDS011;46106;51.468;5.814;2022-07-03T06:52:30;6.22;;;1.38;;
60243;SDS011;46106;51.468;5.814;2022-07-03T06:54:56;5.57;;;1.70;;
60243;SDS011;46106;51.468;5.814;2022-07-03T06:57:22;8.38;;;1.35;;
60243;SDS011;46106;51.468;5.814;2022-07-03T06:59:47;10.77;;;1.52;;
60243;SDS011;46106;51.468;5.814;2022-07-03T07:02:13;7.05;;;1.58;;
60243;SDS011;46106;51.468;5.814;2022-07-03T07:04:39;8.65;;;2.00;;
60243;SDS011;46106;51.468;5.814;2022-07-03T07:07:04;5.28;;;1.40;;
60243;SDS011;46106;51.468;5.814;2022-07-03T07:09:30;10.85;;;1.55;;
60243;SDS011;46106;51.468;5.814;2022-07-03T07:11:56;11.52;;;1.48;;
60243;SDS011;46106;51.468;5.814;2022-07-03T07:14:21;7.80;;;1.50;;
60243;SDS011;46106;51.468;5.814;2022-07-03T07:16:47;8.48;;;1.20;;
60243;SDS011;46106;51.468;5.814;2022-07-03T07:19:12;4.07;;;1.08;;
60243;SDS011;46106;51.468;5.814;2022-07-03T07:21:38;11.05;;;1.58;;
60243;SDS011;46106;51.468;5.814;2022-07-03T07:24:03;5.68;;;1.15;;
60243;SDS011;46106;51.468;5.814;2022-07-03T07:26:29;7.22;;;1.38;;
60243;SDS011;46106;51.468;5.814;2022-07-03T07:28:55;7.57;;;1.30;;
60243;SDS011;46106;51.468;5.814;2022-07-03T07:31:20;5.55;;;1.27;;
60243;SDS011;46106;51.468;5.814;2022-07-03T07:33:46;7.55;;;1.33;;
60243;SDS011;46106;51.468;5.814;2022-07-03T07:36:11;4.03;;;1.17;;
60243;SDS011;46106;51.468;5.814;2022-07-03T07:38:36;4.50;;;1.20;;
60243;SDS011;46106;51.468;5.814;2022-07-03T07:41:02;3.60;;;1.05;;
60243;SDS011;46106;51.468;5.814;2022-07-03T07:43:27;5.60;;;1.20;;
60243;SDS011;46106;51.468;5.814;2022-07-03T07:45:53;3.53;;;1.30;;
60243;SDS011;46106;51.468;5.814;2022-07-03T07:48:19;5.88;;;1.52;;
60243;SDS011;46106;51.468;5.814;2022-07-03T07:50:44;4.55;;;1.20;;
60243;SDS011;46106;51.468;5.814;2022-07-03T07:53:09;6.40;;;1.17;;
60243;SDS011;46106;51.468;5.814;2022-07-03T07:55:35;3.83;;;1.02;;
60243;SDS011;46106;51.468;5.814;2022-07-03T07:58:00;6.22;;;1.48;;
60243;SDS011;46106;51.468;5.814;2022-07-03T08:00:26;4.18;;;1.00;;
60243;SDS011;46106;51.468;5.814;2022-07-03T08:02:52;4.05;;;1.38;;
60243;SDS011;46106;51.468;5.814;2022-07-03T08:05:36;4.78;;;1.13;;
60243;SDS011;46106;51.468;5.814;2022-07-03T08:08:15;4.85;;;1.05;;
60243;SDS011;46106;51.468;5.814;2022-07-03T08:10:44;5.25;;;1.33;;
60243;SDS011;46106;51.468;5.814;2022-07-03T08:13:11;4.43;;;1.30;;
60243;SDS011;46106;51.468;5.814;2022-07-03T08:15:39;2.03;;;1.10;;
60243;SDS011;46106;51.468;5.814;2022-07-03T08:18:05;5.35;;;1.30;;
60243;SDS011;46106;51.468;5.814;2022-07-03T08:20:31;5.30;;;1.30;;
60243;SDS011;46106;51.468;5.814;2022-07-03T08:22:57;4.20;;;1.40;;
60243;SDS011;46106;51.468;5.814;2022-07-03T08:25:24;3.40;;;1.23;;
60243;SDS011;46106;51.468;5.814;2022-07-03T08:27:50;5.53;;;1.38;;
60243;SDS011;46106;51.468;5.814;2022-07-03T08:30:16;4.47;;;1.30;;
60243;SDS011;46106;51.468;5.814;2022-07-03T08:32:45;6.72;;;1.38;;
60243;SDS011;46106;51.468;5.814;2022-07-03T08:35:12;4.00;;;1.30;;
60243;SDS011;46106;51.468;5.814;2022-07-03T08:37:38;4.95;;;1.30;;
60243;SDS011;46106;51.468;5.814;2022-07-03T08:40:06;2.63;;;1.25;;
60243;SDS011;46106;51.468;5.814;2022-07-03T08:42:33;5.95;;;1.48;;
60243;SDS011;46106;51.468;5.814;2022-07-03T08:45:10;7.63;;;1.30;;
60243;SDS011;46106;51.468;5.814;2022-07-03T08:47:38;2.08;;;1.10;;
60243;SDS011;46106;51.468;5.814;2022-07-03T08:50:05;3.40;;;1.00;;
60243;SDS011;46106;51.468;5.814;2022-07-03T08:52:31;2.40;;;1.38;;
60243;SDS011;46106;51.468;5.814;2022-07-03T08:54:58;4.20;;;0.93;;
60243;SDS011;46106;51.468;5.814;2022-07-03T08:57:24;4.15;;;1.13;;
60243;SDS011;46106;51.468;5.814;2022-07-03T08:59:52;3.25;;;0.98;;
60243;SDS011;46106;51.468;5.814;2022-07-03T09:02:18;2.88;;;1.08;;
60243;SDS011;46106;51.468;5.814;2022-07-03T09:04:44;3.22;;;1.15;;
60243;SDS011;46106;51.468;5.814;2022-07-03T09:07:10;2.30;;;1.02;;
60243;SDS011;46106;51.468;5.814;2022-07-03T09:09:38;2.35;;;0.90;;
60243;SDS011;46106;51.468;5.814;2022-07-03T09:12:05;2.90;;;1.00;;
60243;SDS011;46106;51.468;5.814;2022-07-03T09:14:31;2.25;;;0.82;;
60243;SDS011;46106;51.468;5.814;2022-07-03T09:16:57;4.32;;;1.15;;
60243;SDS011;46106;51.468;5.814;2022-07-03T09:19:42;3.08;;;1.02;;
60243;SDS011;46106;51.468;5.814;2022-07-03T09:22:28;6.43;;;1.42;;
60243;SDS011;46106;51.468;5.814;2022-07-03T09:25:08;7.53;;;1.65;;
60243;SDS011;46106;51.468;5.814;2022-07-03T09:27:36;3.90;;;1.20;;
60243;SDS011;46106;51.468;5.814;2022-07-03T09:37:49;4.20;;;0.93;;
60243;SDS011;46106;51.468;5.814;2022-07-03T09:40:19;4.55;;;1.02;;
60243;SDS011;46106;51.468;5.814;2022-07-03T09:56:16;4.82;;;1.00;;
60243;SDS011;46106;51.468;5.814;2022-07-03T09:58:59;3.92;;;0.82;;
60243;SDS011;46106;51.468;5.814;2022-07-03T10:01:29;6.22;;;0.95;;
60243;SDS011;46106;51.468;5.814;2022-07-03T10:04:07;3.47;;;1.33;;
60243;SDS011;46106;51.468;5.814;2022-07-03T10:06:50;4.72;;;0.90;;
60243;SDS011;46106;51.468;5.814;2022-07-03T10:09:28;2.33;;;1.00;;
60243;SDS011;46106;51.468;5.814;2022-07-03T10:11:55;3.50;;;1.23;;
60243;SDS011;46106;51.468;5.814;2022-07-03T10:14:24;7.10;;;1.33;;
60243;SDS011;46106;51.468;5.814;2022-07-03T10:16:51;2.65;;;1.20;;
60243;SDS011;46106;51.468;5.814;2022-07-03T10:19:18;4.18;;;1.38;;
60243;SDS011;46106;51.468;5.814;2022-07-03T10:24:22;5.65;;;1.10;;
60243;SDS011;46106;51.468;5.814;2022-07-03T10:26:49;2.83;;;0.82;;
60243;SDS011;46106;51.468;5.814;2022-07-03T10:29:15;2.00;;;1.00;;
60243;SDS011;46106;51.468;5.814;2022-07-03T10:31:44;1.95;;;0.82;;
60243;SDS011;46106;51.468;5.814;2022-07-03T10:34:12;3.42;;;0.82;;
60243;SDS011;46106;51.468;5.814;2022-07-03T10:36:41;1.42;;;0.90;;
60243;SDS011;46106;51.468;5.814;2022-07-03T10:39:07;2.53;;;0.85;;
60243;SDS011;46106;51.468;5.814;2022-07-03T10:41:43;2.03;;;0.80;;
60243;SDS011;46106;51.468;5.814;2022-07-03T10:44:31;1.65;;;0.63;;
60243;SDS011;46106;51.468;5.814;2022-07-03T10:50:09;1.92;;;0.50;;
60243;SDS011;46106;51.468;5.814;2022-07-03T10:52:36;5.10;;;0.88;;
60243;SDS011;46106;51.468;5.814;2022-07-03T10:55:03;3.03;;;0.65;;
60243;SDS011;46106;51.468;5.814;2022-07-03T10:57:31;3.05;;;0.70;;
60243;SDS011;46106;51.468;5.814;2022-07-03T10:59:58;1.90;;;0.70;;
60243;SDS011;46106;51.468;5.814;2022-07-03T11:02:39;1.88;;;0.80;;
60243;SDS011;46106;51.468;5.814;2022-07-03T11:05:10;2.80;;;0.90;;
60243;SDS011;46106;51.468;5.814;2022-07-03T11:15:25;2.25;;;0.88;;
60243;SDS011;46106;51.468;5.814;2022-07-03T11:25:38;2.00;;;0.63;;
60243;SDS011;46106;51.468;5.814;2022-07-03T11:28:04;5.75;;;0.90;;
60243;SDS011;46106;51.468;5.814;2022-07-03T11:30:30;2.05;;;0.75;;
60243;SDS011;46106;51.468;5.814;2022-07-03T11:32:57;2.17;;;0.70;;
60243;SDS011;46106;51.468;5.814;2022-07-03T11:38:17;2.13;;;0.63;;
60243;SDS011;46106;51.468;5.814;2022-07-03T11:40:45;4.47;;;0.85;;
60243;SDS011;46106;51.468;5.814;2022-07-03T11:43:13;3.22;;;0.60;;
60243;SDS011;46106;51.468;5.814;2022-07-03T11:45:39;7.88;;;0.60;;
60243;SDS011;46106;51.468;5.814;2022-07-03T11:48:10;2.35;;;0.75;;
60243;SDS011;46106;51.468;5.814;2022-07-03T11:50:38;0.85;;;0.50;;
60243;SDS011;46106;51.468;5.814;2022-07-03T11:55:53;1.45;;;0.60;;
60243;SDS011;46106;51.468;5.814;2022-07-03T11:58:19;2.08;;;0.52;;
60243;SDS011;46106;51.468;5.814;2022-07-03T12:00:45;3.38;;;0.50;;
60243;SDS011;46106;51.468;5.814;2022-07-03T12:03:19;4.93;;;0.60;;
60243;SDS011;46106;51.468;5.814;2022-07-03T12:05:51;3.30;;;1.60;;
60243;SDS011;46106;51.468;5.814;2022-07-03T12:08:21;3.60;;;1.38;;
60243;SDS011;46106;51.468;5.814;2022-07-03T12:10:55;4.30;;;1.50;;
60243;SDS011;46106;51.468;5.814;2022-07-03T12:13:23;6.00;;;1.27;;
60243;SDS011;46106;51.468;5.814;2022-07-03T12:15:50;3.92;;;1.02;;
60243;SDS011;46106;51.468;5.814;2022-07-03T12:18:16;3.20;;;1.05;;
60243;SDS011;46106;51.468;5.814;2022-07-03T12:20:41;3.60;;;1.35;;
60243;SDS011;46106;51.468;5.814;2022-07-03T12:23:07;2.83;;;1.00;;
60243;SDS011;46106;51.468;5.814;2022-07-03T12:25:42;2.10;;;1.05;;
60243;SDS011;46106;51.468;5.814;2022-07-03T12:28:09;4.13;;;1.10;;
60243;SDS011;46106;51.468;5.814;2022-07-03T12:30:35;1.55;;;0.80;;
60243;SDS011;46106;51.468;5.814;2022-07-03T12:33:02;2.83;;;0.63;;
60243;SDS011;46106;51.468;5.814;2022-07-03T12:35:28;2.78;;;0.60;;
60243;SDS011;46106;51.468;5.814;2022-07-03T12:37:54;0.82;;;0.50;;
60243;SDS011;46106;51.468;5.814;2022-07-03T12:40:20;2.03;;;0.77;;
60243;SDS011;46106;51.468;5.814;2022-07-03T12:42:50;1.50;;;0.65;;
60243;SDS011;46106;51.468;5.814;2022-07-03T12:45:18;2.50;;;0.80;;
60243;SDS011;46106;51.468;5.814;2022-07-03T12:47:44;1.25;;;0.65;;
60243;SDS011;46106;51.468;5.814;2022-07-03T12:50:10;5.85;;;0.60;;
60243;SDS011;46106;51.468;5.814;2022-07-03T12:52:50;3.22;;;0.60;;
60243;SDS011;46106;51.468;5.814;2022-07-03T12:55:27;2.83;;;0.65;;
60243;SDS011;46106;51.468;5.814;2022-07-03T13:01:00;4.88;;;0.65;;
60243;SDS011;46106;51.468;5.814;2022-07-03T13:03:29;2.60;;;0.60;;
60243;SDS011;46106;51.468;5.814;2022-07-03T13:05:56;2.80;;;0.70;;
60243;SDS011;46106;51.468;5.814;2022-07-03T13:08:21;4.25;;;0.60;;
60243;SDS011;46106;51.468;5.814;2022-07-03T13:10:57;3.20;;;0.68;;
60243;SDS011;46106;51.468;5.814;2022-07-03T13:13:23;2.92;;;0.70;;
60243;SDS011;46106;51.468;5.814;2022-07-03T13:15:49;2.25;;;0.70;;
60243;SDS011;46106;51.468;5.814;2022-07-03T13:18:15;3.72;;;0.50;;
60243;SDS011;46106;51.468;5.814;2022-07-03T13:20:41;2.10;;;0.63;;
60243;SDS011;46106;51.468;5.814;2022-07-03T13:23:06;3.00;;;0.70;;
60243;SDS011;46106;51.468;5.814;2022-07-03T13:25:33;3.70;;;0.70;;
60243;SDS011;46106;51.468;5.814;2022-07-03T13:28:05;4.07;;;0.60;;
60243;SDS011;46106;51.468;5.814;2022-07-03T13:30:35;1.42;;;0.50;;
60243;SDS011;46106;51.468;5.814;2022-07-03T13:33:01;2.05;;;0.60;;
60243;SDS011;46106;51.468;5.814;2022-07-03T13:35:28;3.13;;;0.70;;
60243;SDS011;46106;51.468;5.814;2022-07-03T13:37:54;1.13;;;0.52;;
60243;SDS011;46106;51.468;5.814;2022-07-03T13:40:19;0.95;;;0.50;;
60243;SDS011;46106;51.468;5.814;2022-07-03T13:42:45;2.70;;;0.65;;
60243;SDS011;46106;51.468;5.814;2022-07-03T13:45:10;2.20;;;0.70;;
60243;SDS011;46106;51.468;5.814;2022-07-03T13:47:36;2.40;;;0.57;;
60243;SDS011;46106;51.468;5.814;2022-07-03T13:50:02;1.52;;;0.55;;
60243;SDS011;46106;51.468;5.814;2022-07-03T13:52:28;3.38;;;0.52;;
60243;SDS011;46106;51.468;5.814;2022-07-03T13:54:54;2.33;;;0.60;;
60243;SDS011;46106;51.468;5.814;2022-07-03T13:57:19;5.88;;;0.60;;
60243;SDS011;46106;51.468;5.814;2022-07-03T13:59:45;2.55;;;0.65;;
60243;SDS011;46106;51.468;5.814;2022-07-03T14:02:10;1.45;;;0.60;;
60243;SDS011;46106;51.468;5.814;2022-07-03T14:04:36;2.90;;;0.50;;
60243;SDS011;46106;51.468;5.814;2022-07-03T14:07:01;1.92;;;0.60;;
60243;SDS011;46106;51.468;5.814;2022-07-03T14:09:27;2.63;;;0.50;;
60243;SDS011;46106;51.468;5.814;2022-07-03T14:11:52;3.08;;;0.50;;
60243;SDS011;46106;51.468;5.814;2022-07-03T14:14:18;2.90;;;0.40;;
60243;SDS011;46106;51.468;5.814;2022-07-03T14:16:43;0.82;;;0.50;;
60243;SDS011;46106;51.468;5.814;2022-07-03T14:19:09;1.73;;;0.40;;
60243;SDS011;46106;51.468;5.814;2022-07-03T14:21:34;2.40;;;0.52;;
60243;SDS011;46106;51.468;5.814;2022-07-03T14:24:00;1.55;;;0.60;;
60243;SDS011;46106;51.468;5.814;2022-07-03T14:26:25;2.28;;;0.60;;
60243;SDS011;46106;51.468;5.814;2022-07-03T14:29:09;2.47;;;0.60;;
60243;SDS011;46106;51.468;5.814;2022-07-03T14:31:54;0.65;;;0.50;;
60243;SDS011;46106;51.468;5.814;2022-07-03T14:34:38;1.83;;;0.50;;
60243;SDS011;46106;51.468;5.814;2022-07-03T14:37:05;3.15;;;0.70;;
60243;SDS011;46106;51.468;5.814;2022-07-03T14:39:30;6.22;;;0.60;;
60243;SDS011;46106;51.468;5.814;2022-07-03T14:41:56;1.30;;;0.50;;
60243;SDS011;46106;51.468;5.814;2022-07-03T14:44:21;1.05;;;0.52;;
60243;SDS011;46106;51.468;5.814;2022-07-03T14:46:52;0.90;;;0.47;;
60243;SDS011;46106;51.468;5.814;2022-07-03T14:49:18;1.38;;;0.40;;
60243;SDS011;46106;51.468;5.814;2022-07-03T14:51:44;2.10;;;0.45;;
60243;SDS011;46106;51.468;5.814;2022-07-03T14:54:10;5.10;;;0.80;;
60243;SDS011;46106;51.468;5.814;2022-07-03T14:56:39;3.63;;;0.57;;
60243;SDS011;46106;51.468;5.814;2022-07-03T14:59:08;1.40;;;0.70;;
60243;SDS011;46106;51.468;5.814;2022-07-03T15:01:35;1.13;;;0.57;;
60243;SDS011;46106;51.468;5.814;2022-07-03T15:04:02;2.55;;;0.70;;
60243;SDS011;46106;51.468;5.814;2022-07-03T15:06:28;3.45;;;0.95;;
60243;SDS011;46106;51.468;5.814;2022-07-03T15:08:58;3.03;;;0.90;;
60243;SDS011;46106;51.468;5.814;2022-07-03T15:11:32;5.30;;;1.00;;
60243;SDS011;46106;51.468;5.814;2022-07-03T15:14:22;3.13;;;1.02;;
60243;SDS011;46106;51.468;5.814;2022-07-03T15:16:50;6.03;;;0.70;;
60243;SDS011;46106;51.468;5.814;2022-07-03T15:19:19;7.20;;;0.88;;
60243;SDS011;46106;51.468;5.814;2022-07-03T15:21:45;1.50;;;0.65;;
60243;SDS011;46106;51.468;5.814;2022-07-03T15:24:12;6.85;;;0.80;;
60243;SDS011;46106;51.468;5.814;2022-07-03T15:26:39;2.20;;;0.80;;
60243;SDS011;46106;51.468;5.814;2022-07-03T15:29:06;9.65;;;0.80;;
60243;SDS011;46106;51.468;5.814;2022-07-03T15:31:35;5.07;;;1.17;;
60243;SDS011;46106;51.468;5.814;2022-07-03T15:34:05;2.40;;;0.85;;
60243;SDS011;46106;51.468;5.814;2022-07-03T15:36:43;2.08;;;1.05;;
60243;SDS011;46106;51.468;5.814;2022-07-03T15:39:13;5.60;;;1.00;;
60243;SDS011;46106;51.468;5.814;2022-07-03T15:42:00;3.28;;;1.05;;
60243;SDS011;46106;51.468;5.814;2022-07-03T15:49:40;1.80;;;0.80;;
60243;SDS011;46106;51.468;5.814;2022-07-03T15:54:40;3.72;;;0.80;;
60243;SDS011;46106;51.468;5.814;2022-07-03T15:57:17;3.63;;;0.70;;
60243;SDS011;46106;51.468;5.814;2022-07-03T15:59:58;2.28;;;0.90;;
60243;SDS011;46106;51.468;5.814;2022-07-03T16:02:26;8.23;;;0.90;;
60243;SDS011;46106;51.468;5.814;2022-07-03T16:05:10;2.92;;;0.88;;
60243;SDS011;46106;51.468;5.814;2022-07-03T16:07:39;1.65;;;0.90;;